createdAt,value
2023-05-20T00:01:46.364Z,99671.66
2023-05-20T00:06:48.138Z,99670.64
2023-05-20T00:11:50.036Z,99672.17
2023-05-20T00:16:52.023Z,99674.98
2023-05-20T00:21:53.838Z,99671.02
2023-05-20T00:26:55.763Z,99665.66
2023-05-20T00:31:57.624Z,99665.14
2023-05-20T00:36:59.763Z,99660.48
2023-05-20T00:42:03.515Z,99659.95
2023-05-20T00:47:05.535Z,99656.19
2023-05-20T00:52:08.381Z,99655.41
2023-05-20T00:57:10.747Z,99653.23
2023-05-20T01:02:12.853Z,99653.57
2023-05-20T01:07:19.419Z,99645.83
2023-05-20T01:12:26.427Z,99639.83
2023-05-20T01:17:32.987Z,99639.29
2023-05-20T01:22:58.110Z,99640.46
2023-05-20T01:27:59.912Z,99645.77
2023-05-20T01:33:07.276Z,99648.77
2023-05-20T01:38:09.557Z,99644.72
2023-05-20T01:43:12.418Z,99637.88
2023-05-20T01:48:16.918Z,99638.23
2023-05-20T01:53:18.803Z,99641.25
2023-05-20T01:58:20.759Z,99645.89
2023-05-20T02:03:22.805Z,99648.50
2023-05-20T02:08:24.734Z,99643.77
2023-05-20T02:13:26.594Z,99640.20
2023-05-20T02:18:28.433Z,99640.50
2023-05-20T02:23:33.180Z,99649.09
2023-05-20T02:28:35.039Z,99654.17
2023-05-20T02:33:36.917Z,99648.29
2023-05-20T02:38:39.024Z,99652.08
2023-05-20T02:43:40.838Z,99655.77
2023-05-20T02:48:42.595Z,99651.87
2023-05-20T02:53:44.432Z,99654.23
2023-05-20T02:58:46.707Z,99655.59
2023-05-20T03:03:49.203Z,99655.77
2023-05-20T03:08:51.397Z,99655.03
2023-05-20T03:13:53.277Z,99653.33
2023-05-20T03:18:55.194Z,99655.10
2023-05-20T03:23:57.101Z,99656.27
2023-05-20T03:28:59.355Z,99655.11
2023-05-20T03:34:02.027Z,99657.36
2023-05-20T03:39:04.630Z,99657.04
2023-05-20T03:44:07.299Z,99662.84
2023-05-20T03:49:09.336Z,99653.40
2023-05-20T03:54:12.041Z,99651.51
2023-05-20T03:59:15.098Z,99658.13
2023-05-20T04:07:13.612Z,99659.80
2023-05-20T04:12:16.044Z,99654.65
2023-05-20T04:17:17.818Z,99655.92
2023-05-20T04:22:19.879Z,99664.30
2023-05-20T04:27:21.866Z,99675.49
2023-05-20T04:32:23.814Z,99674.16
2023-05-20T04:37:26.333Z,99669.14
2023-05-20T04:42:29.892Z,99674.12
2023-05-20T04:47:38.617Z,99677.78
2023-05-20T04:52:46.207Z,99684.55
2023-05-20T04:57:48.191Z,99678.64
2023-05-20T05:02:50.211Z,99674.52
2023-05-20T05:07:53.261Z,99675.21
2023-05-20T05:12:55.118Z,99677.73
2023-05-20T05:17:57.775Z,99672.42
2023-05-20T05:22:59.902Z,99670.23
2023-05-20T05:28:01.728Z,99665.63
2023-05-20T05:33:03.642Z,99668.17
2023-05-20T05:38:05.634Z,99664.42
2023-05-20T05:43:07.817Z,99661.92
2023-05-20T05:48:10.459Z,99662.85
2023-05-20T05:53:13.279Z,99665.05
2023-05-20T05:58:16.521Z,99666.30
2023-05-20T06:03:18.903Z,99655.06
2023-05-20T06:08:20.918Z,99655.53
2023-05-20T06:13:23.439Z,99648.81
2023-05-20T06:18:25.433Z,99637.58
2023-05-20T06:23:31.271Z,99632.61
2023-05-20T06:28:35.918Z,99635.25
2023-05-20T06:33:37.846Z,99651.13
2023-05-20T06:38:45.737Z,99659.92
2023-05-20T06:43:50.573Z,99657.34
2023-05-20T06:49:13.302Z,99653.88
2023-05-20T06:54:15.969Z,99660.08
2023-05-20T06:59:18.246Z,99662.23
2023-05-20T07:04:20.554Z,99659.70
2023-05-20T07:09:23.054Z,99647.41
2023-05-20T07:14:25.777Z,99638.08
2023-05-20T07:19:27.967Z,99631.69
2023-05-20T07:24:30.171Z,99626.98
2023-05-20T07:29:32.406Z,99624.30
2023-05-20T07:34:34.956Z,99625.42
2023-05-20T07:39:37.028Z,99630.45
2023-05-20T07:44:42.048Z,99627.86
2023-05-20T07:49:44.559Z,99622.77
2023-05-20T07:54:46.504Z,99618.12
2023-05-20T07:59:51.364Z,99610.85
2023-05-20T08:04:54.597Z,99606.88
2023-05-20T08:09:57.100Z,99600.83
2023-05-20T08:14:59.058Z,99594.91
2023-05-20T08:20:01.841Z,99591.38
2023-05-20T08:25:08.099Z,99592.17
2023-05-20T08:30:13.663Z,99597.27
2023-05-20T08:35:16.586Z,99593.40
2023-05-20T08:40:20.851Z,99589.14
2023-05-20T08:45:27.860Z,99584.36
2023-05-20T08:50:33.378Z,99575.97
2023-05-20T08:55:43.050Z,99572.65
2023-05-20T09:00:45.549Z,99570.06
2023-05-20T09:05:48.062Z,99571.96
2023-05-20T09:10:52.659Z,99571.81
2023-05-20T09:15:54.495Z,99569.47
2023-05-20T09:20:56.757Z,99570.16
2023-05-20T09:26:02.414Z,99562.66
2023-05-20T09:31:06.688Z,99550.92
2023-05-20T09:36:09.424Z,99538.98
2023-05-20T09:41:15.466Z,99536.26
2023-05-20T09:46:17.523Z,99525.20
2023-05-20T09:51:22.786Z,99522.98
2023-05-20T09:56:26.384Z,99517.84
2023-05-20T10:01:28.234Z,99518.89
2023-05-20T10:06:43.416Z,99517.11
2023-05-20T10:11:59.570Z,99518.27
2023-05-20T10:17:20.330Z,99518.92
2023-05-20T10:22:29.887Z,99513.67
2023-05-20T10:27:46.025Z,99506.58
2023-05-20T10:32:58.167Z,99511.09
2023-05-20T10:38:12.264Z,99503.95
2023-05-20T10:43:16.285Z,99499.20
2023-05-20T10:48:24.411Z,99499.36
2023-05-20T10:53:34.452Z,99496.54
2023-05-20T10:58:37.662Z,99495.84
2023-05-20T11:03:41.149Z,99494.67
2023-05-20T11:08:43.235Z,99486.23
2023-05-20T11:13:50.716Z,99472.87
2023-05-20T11:18:52.497Z,99469.79
2023-05-20T11:23:54.909Z,99458.63
2023-05-20T11:28:58.276Z,99452.52
2023-05-20T11:34:01.728Z,99457.75
2023-05-20T11:39:03.848Z,99450.67
2023-05-20T11:44:10.264Z,99448.33
2023-05-20T11:49:14.006Z,99439.88
2023-05-20T11:54:15.979Z,99433.14
2023-05-20T11:59:17.745Z,99432.30
2023-05-20T12:04:19.680Z,99425.92
2023-05-20T12:09:22.576Z,99424.86
2023-05-20T12:14:24.516Z,99424.89
2023-05-20T12:19:26.348Z,99421.34
2023-05-20T12:24:28.106Z,99416.41
2023-05-20T12:29:30.097Z,99418.23
2023-05-20T12:34:33.281Z,99408.44
2023-05-20T12:39:42.485Z,99401.96
2023-05-20T12:44:44.283Z,99400.11
2023-05-20T12:49:46.038Z,99404.36
2023-05-20T12:54:47.923Z,99398.90
2023-05-20T12:59:50.198Z,99396.26
2023-05-20T13:04:52.015Z,99391.84
2023-05-20T13:09:53.830Z,99388.59
2023-05-20T13:14:55.584Z,99383.58
2023-05-20T13:19:57.346Z,99377.10
2023-05-20T13:24:59.354Z,99374.23
2023-05-20T13:30:02.027Z,99373.08
2023-05-20T13:35:07.152Z,99362.98
2023-05-20T13:40:09.555Z,99356.94
2023-05-20T13:45:11.759Z,99354.05
2023-05-20T13:50:13.556Z,99348.77
2023-05-20T13:55:16.303Z,99342.31
2023-05-20T14:00:18.780Z,99333.04
2023-05-20T14:05:21.470Z,99324.56
2023-05-20T14:10:23.181Z,99316.11
2023-05-20T14:15:24.899Z,99308.84
2023-05-20T14:20:26.952Z,99305.20
2023-05-20T14:25:29.136Z,99294.83
2023-05-20T14:30:31.273Z,99286.50
2023-05-20T14:35:33.101Z,99286.41
2023-05-20T14:40:35.090Z,99281.17
2023-05-20T14:45:37.046Z,99276.17
2023-05-20T14:50:38.808Z,99277.60
2023-05-20T14:55:40.863Z,99276.13
2023-05-20T15:00:43.035Z,99275.13
2023-05-20T15:05:44.949Z,99270.59
2023-05-20T15:10:46.953Z,99256.89
2023-05-20T15:15:48.757Z,99253.07
2023-05-20T15:20:50.664Z,99250.02
2023-05-20T15:25:52.649Z,99247.36
2023-05-20T15:30:56.213Z,99243.27
2023-05-20T15:35:58.046Z,99241.92
2023-05-20T15:40:59.843Z,99239.11
2023-05-20T15:46:01.610Z,99235.23
2023-05-20T15:51:04.333Z,99231.74
2023-05-20T15:56:07.112Z,99229.66
2023-05-20T16:01:08.870Z,99230.33
2023-05-20T16:06:11.848Z,99229.74
2023-05-20T16:11:13.753Z,99227.58
2023-05-20T16:16:16.802Z,99218.78
2023-05-20T16:21:19.666Z,99213.79
2023-05-20T16:26:21.469Z,99215.41
2023-05-20T16:31:23.813Z,99214.83
2023-05-20T16:36:26.964Z,99214.44
2023-05-20T16:41:28.736Z,99212.97
2023-05-20T16:46:30.574Z,99213.13
2023-05-20T16:51:32.352Z,99217.64
2023-05-20T16:56:35.503Z,99225.79
2023-05-20T17:01:37.357Z,99222.48
2023-05-20T17:06:39.928Z,99229.08
2023-05-20T17:11:42.134Z,99231.30
2023-05-20T17:16:43.855Z,99232.23
2023-05-20T17:21:45.893Z,99236.89
2023-05-20T17:26:47.629Z,99243.02
2023-05-20T17:31:49.628Z,99243.42
2023-05-20T17:36:51.616Z,99241.62
2023-05-20T17:41:53.411Z,99234.64
2023-05-20T17:46:55.126Z,99238.13
2023-05-20T17:51:56.922Z,99236.00
2023-05-20T17:56:58.641Z,99240.20
2023-05-20T18:02:01.375Z,99244.30
2023-05-20T18:07:09.789Z,99252.12
2023-05-20T18:12:11.538Z,99253.20
2023-05-20T18:17:13.298Z,99250.09
2023-05-20T18:22:15.092Z,99251.89
2023-05-20T18:27:17.082Z,99253.66
2023-05-20T18:32:18.953Z,99254.13
2023-05-20T18:37:21.009Z,99257.79
2023-05-20T18:42:22.733Z,99259.67
2023-05-20T18:47:24.583Z,99262.35
2023-05-20T18:52:26.451Z,99263.27
2023-05-20T18:57:28.389Z,99259.46
2023-05-20T19:02:30.180Z,99256.68
2023-05-20T19:07:32.148Z,99262.03
2023-05-20T19:12:33.928Z,99264.05
2023-05-20T19:17:35.837Z,99256.48
2023-05-20T19:22:37.750Z,99255.66
2023-05-20T19:27:39.542Z,99256.89
2023-05-20T19:32:41.624Z,99258.68
2023-05-20T19:37:43.580Z,99261.23
2023-05-20T19:42:45.332Z,99261.89
2023-05-20T19:47:47.173Z,99260.48
2023-05-20T19:52:49.026Z,99260.08
2023-05-20T19:57:53.549Z,99256.86
2023-05-20T20:02:56.974Z,99258.48
2023-05-20T20:07:59.265Z,99256.60
2023-05-20T20:13:01.298Z,99251.95
2023-05-20T20:18:03.409Z,99256.52
2023-05-20T20:23:08.030Z,99262.60
2023-05-20T20:28:11.264Z,99267.66
2023-05-20T20:33:14.664Z,99263.73
2023-05-20T20:38:18.131Z,99265.49
2023-05-20T20:43:21.228Z,99261.52
2023-05-20T20:48:27.294Z,99263.10
2023-05-20T20:53:29.222Z,99265.20
2023-05-20T20:58:35.059Z,99269.90
2023-05-20T21:03:40.123Z,99268.18
2023-05-20T21:08:42.724Z,99268.38
2023-05-20T21:13:47.696Z,99266.48
2023-05-20T21:18:49.577Z,99269.92
2023-05-20T21:23:52.822Z,99274.60
2023-05-20T21:28:54.616Z,99271.31
2023-05-20T21:33:56.394Z,99268.36
2023-05-20T21:38:59.191Z,99262.65
2023-05-20T21:44:01.528Z,99259.89
2023-05-20T21:49:04.738Z,99257.98
2023-05-20T21:54:06.612Z,99259.70
2023-05-20T21:59:08.288Z,99258.65
2023-05-20T22:04:11.871Z,99257.60
2023-05-20T22:09:13.822Z,99253.95
2023-05-20T22:14:16.411Z,99258.45
2023-05-20T22:19:18.266Z,99258.11
2023-05-20T22:24:20.056Z,99257.41
2023-05-20T22:29:22.513Z,99253.77
2023-05-20T22:34:24.250Z,99248.56
2023-05-20T22:39:25.991Z,99251.48
2023-05-20T22:44:27.751Z,99249.07
2023-05-20T22:49:29.462Z,99248.19
2023-05-20T22:54:31.228Z,99249.56
2023-05-20T22:59:32.949Z,99244.58
2023-05-20T23:04:34.681Z,99240.61
2023-05-20T23:09:37.197Z,99241.13
2023-05-20T23:14:45.154Z,99243.73
2023-05-20T23:19:47.515Z,99240.63
2023-05-20T23:24:49.311Z,99240.30
2023-05-20T23:29:51.210Z,99234.59
2023-05-20T23:34:56.886Z,99231.11
2023-05-20T23:39:59.402Z,99234.41
2023-05-20T23:45:01.404Z,99235.27
2023-05-20T23:50:23.131Z,99234.39
2023-05-20T23:55:24.872Z,99224.88
